Time;durP1;ratioP1;P1;durP2;ratioP2;P2;SDS_P1;SDS_P2;PMS_P1;PMS_P2;Temp;Humidity;BMP_temperature;BMP_pressure;BME280_temperature;BME280_humidity;BME280_pressure;Samples;Min_cycle;Max_cycle;Signal;HPM_P1;HPM_P2
2024/01/25 00:01:25;;;;;;;0.10;0.10;;;;;;;8.70;75.23;101773.16;7358180;19;20113;-64
2024/01/25 00:03:50;;;;;;;0.10;0.10;;;;;;;8.69;75.38;101761.00;7352063;19;20018;-64
2024/01/25 00:06:15;;;;;;;0.10;0.10;;;;;;;8.45;75.20;101710.59;7358927;19;20483;-64
2024/01/25 00:08:41;;;;;;;0.00;0.00;;;;;;;8.50;75.46;101719.28;7355567;19;20014;-64
2024/01/25 00:11:06;;;;;;;0.00;0.00;;;;;;;8.72;75.37;101756.69;7353290;19;20029;-65
2024/01/25 00:13:32;;;;;;;0.05;0.05;;;;;;;8.58;75.43;101722.78;7359219;19;20011;-65
2024/01/25 00:15:57;;;;;;;0.10;0.10;;;;;;;8.60;75.69;101703.69;7348616;19;20006;-64
2024/01/25 00:18:23;;;;;;;0.03;0.03;;;;;;;8.76;75.50;101721.06;7358537;19;20003;-64
2024/01/25 00:20:48;;;;;;;0.10;0.10;;;;;;;8.76;75.47;101718.47;7357995;19;20021;-64
2024/01/25 00:23:14;;;;;;;0.00;0.00;;;;;;;8.74;75.09;101704.59;7357842;19;20025;-64
2024/01/25 00:25:39;;;;;;;0.10;0.10;;;;;;;8.65;75.39;101696.75;7332741;19;20007;-64
2024/01/25 00:28:05;;;;;;;0.08;0.08;;;;;;;8.70;74.93;101701.09;7353355;19;20018;-65
2024/01/25 00:30:30;;;;;;;0.10;0.10;;;;;;;8.67;75.25;101679.38;7358137;19;20029;-64
2024/01/25 00:32:57;;;;;;;0.10;0.10;;;;;;;8.65;75.25;101670.72;7357379;19;20018;-65
2024/01/25 00:35:24;;;;;;;0.10;0.10;;;;;;;8.77;75.06;101684.63;7357804;19;20042;-65
2024/01/25 00:37:49;;;;;;;0.10;0.10;;;;;;;8.78;75.05;101668.13;7362904;19;20014;-64
2024/01/25 00:40:15;;;;;;;0.10;0.10;;;;;;;8.63;74.86;101636.00;7361355;19;20014;-65
2024/01/25 00:42:43;;;;;;;0.10;0.10;;;;;;;8.80;74.99;101666.38;7365117;19;20402;-64
2024/01/25 00:45:09;;;;;;;0.10;0.10;;;;;;;8.80;74.84;101655.09;7364761;19;20023;-64
2024/01/25 00:47:35;;;;;;;0.10;0.10;;;;;;;8.72;74.45;101641.22;7359584;19;20079;-65
2024/01/25 00:50:01;;;;;;;0.10;0.10;;;;;;;8.80;74.78;101648.16;7368042;19;20018;-65
2024/01/25 00:52:26;;;;;;;0.10;0.10;;;;;;;8.72;74.91;101625.59;7362032;19;20006;-64
2024/01/25 00:54:52;;;;;;;0.10;0.10;;;;;;;8.73;74.78;101616.91;7361005;19;20031;-65
2024/01/25 00:57:18;;;;;;;0.10;0.10;;;;;;;8.61;74.72;101598.69;7360424;19;20033;-64
2024/01/25 00:59:43;;;;;;;0.10;0.10;;;;;;;8.79;74.86;101616.91;7364075;19;20031;-65
2024/01/25 01:02:12;;;;;;;0.10;0.10;;;;;;;8.71;75.03;101603.88;7362790;19;20074;-65
2024/01/25 01:04:38;;;;;;;0.00;0.00;;;;;;;8.80;74.87;101623.84;7361318;19;20018;-65
2024/01/25 01:07:04;;;;;;;0.10;0.10;;;;;;;8.70;75.24;101601.28;7357738;19;20041;-65
2024/01/25 01:09:29;;;;;;;0.10;0.10;;;;;;;8.80;75.22;101629.06;7363135;19;20474;-64
2024/01/25 01:11:55;;;;;;;0.10;0.10;;;;;;;8.63;75.10;101600.44;7359770;19;20010;-64
2024/01/25 01:14:20;;;;;;;0.00;0.00;;;;;;;8.77;75.30;101613.44;7362629;19;20041;-64
2024/01/25 01:16:45;;;;;;;0.10;0.10;;;;;;;8.86;75.10;101612.56;7362822;19;20010;-64
2024/01/25 01:19:11;;;;;;;0.10;0.10;;;;;;;8.86;75.19;101618.63;7364250;19;20018;-64
2024/01/25 01:21:36;;;;;;;0.20;0.20;;;;;;;8.88;75.15;101616.91;7362245;19;20017;-64
2024/01/25 01:24:02;;;;;;;0.10;0.10;;;;;;;8.82;75.27;101606.50;7365792;19;20073;-64
2024/01/25 01:26:28;;;;;;;0.10;0.10;;;;;;;8.92;75.34;101616.03;7364092;19;20436;-64
2024/01/25 01:28:53;;;;;;;0.10;0.10;;;;;;;8.95;75.42;101613.41;7363508;19;20010;-64
2024/01/25 01:31:18;;;;;;;0.10;0.10;;;;;;;8.82;75.21;101590.88;7358921;19;20010;-64
2024/01/25 01:33:44;;;;;;;0.10;0.10;;;;;;;8.88;74.95;101582.19;7370272;19;20033;-64
2024/01/25 01:36:09;;;;;;;0.10;0.10;;;;;;;9.03;75.30;101603.88;7366625;19;20031;-64
2024/01/25 01:38:35;;;;;;;0.10;0.10;;;;;;;8.78;74.94;101558.75;7364368;19;20034;-65
2024/01/25 01:41:00;;;;;;;0.10;0.10;;;;;;;9.09;75.19;101606.44;7363488;19;20003;-64
2024/01/25 01:43:25;;;;;;;0.10;0.10;;;;;;;9.00;74.88;101590.81;7361987;19;20010;-64
2024/01/25 01:45:51;;;;;;;0.10;0.10;;;;;;;9.16;75.28;101606.44;7363208;19;20427;-64
2024/01/25 01:48:17;;;;;;;0.08;0.08;;;;;;;9.13;75.30;101590.81;7363239;19;20082;-64
2024/01/25 01:50:43;;;;;;;0.13;0.13;;;;;;;9.21;74.94;101599.47;7363619;19;20101;-65
2024/01/25 01:53:10;;;;;;;0.10;0.10;;;;;;;9.19;75.31;101585.59;7357356;19;20097;-65
2024/01/25 01:55:36;;;;;;;0.10;0.10;;;;;;;9.16;74.98;101580.38;7362626;19;20011;-64
2024/01/25 01:58:02;;;;;;;0.10;0.10;;;;;;;9.25;75.32;101585.56;7362530;19;20408;-64
2024/01/25 02:00:30;;;;;;;0.10;0.10;;;;;;;9.16;75.24;101565.59;7362325;19;20041;-64
2024/01/25 02:02:57;;;;;;;0.10;0.10;;;;;;;9.32;75.23;101585.53;7361543;19;20029;-64
2024/01/25 02:05:23;;;;;;;0.10;0.10;;;;;;;9.30;75.22;101573.38;7372179;19;20106;-64
2024/01/25 02:07:49;;;;;;;0.10;0.10;;;;;;;9.25;75.14;101564.72;7377326;19;20014;-64
2024/01/25 02:10:14;;;;;;;0.10;0.10;;;;;;;9.36;75.13;101558.56;7367349;19;20006;-64
2024/01/25 02:12:40;;;;;;;0.10;0.10;;;;;;;9.38;75.12;101569.03;7365279;19;20422;-64
2024/01/25 02:15:05;;;;;;;0.10;0.10;;;;;;;9.28;75.55;101544.72;7365008;19;20410;-64
2024/01/25 02:17:31;;;;;;;0.10;0.10;;;;;;;9.31;75.42;101544.69;7367219;19;20039;-64
2024/01/25 02:19:56;;;;;;;0.10;0.10;;;;;;;9.37;75.57;101549.00;7366310;19;20006;-63
2024/01/25 02:22:22;;;;;;;0.10;0.10;;;;;;;9.39;75.68;101536.00;7363733;19;20106;-64
2024/01/25 02:24:47;;;;;;;0.10;0.10;;;;;;;9.29;75.71;101509.09;7364038;19;20025;-64
2024/01/25 02:27:13;;;;;;;0.10;0.10;;;;;;;9.41;75.46;101521.19;7368348;19;20018;-64
2024/01/25 02:29:38;;;;;;;0.10;0.10;;;;;;;9.39;75.66;101522.97;7372682;19;20017;-64
2024/01/25 02:32:04;;;;;;;0.10;0.10;;;;;;;9.20;75.77;101472.66;7372272;19;20042;-64
2024/01/25 02:34:29;;;;;;;0.10;0.10;;;;;;;9.32;75.85;101496.03;7365461;19;20025;-64
2024/01/25 02:36:55;;;;;;;0.10;0.10;;;;;;;9.40;75.78;101496.00;7365298;19;20006;-64
2024/01/25 02:39:20;;;;;;;0.10;0.10;;;;;;;9.25;75.99;101465.69;7362594;19;20018;-64
2024/01/25 02:41:46;;;;;;;0.10;0.10;;;;;;;9.41;75.93;101482.97;7364388;19;20011;-64
2024/01/25 02:44:12;;;;;;;0.10;0.10;;;;;;;9.38;75.72;101467.34;7368383;19;20002;-64
2024/01/25 02:46:38;;;;;;;0.10;0.10;;;;;;;9.37;76.34;101465.59;7370667;19;20006;-64
2024/01/25 02:49:04;;;;;;;0.10;0.10;;;;;;;9.44;76.44;101467.31;7369964;19;20623;-64
2024/01/25 02:51:29;;;;;;;0.10;0.10;;;;;;;9.46;76.31;101469.91;7363662;19;20007;-64
2024/01/25 02:53:55;;;;;;;0.10;0.10;;;;;;;9.47;76.50;101459.47;7365562;19;20100;-64
2024/01/25 02:56:20;;;;;;;0.10;0.10;;;;;;;9.48;75.93;101452.50;7363863;19;20014;-64
2024/01/25 02:58:46;;;;;;;0.10;0.10;;;;;;;9.50;76.11;101443.81;7358365;19;20014;-64
2024/01/25 03:01:11;;;;;;;0.00;0.00;;;;;;;9.41;76.43;101419.53;7362232;19;20021;-64
2024/01/25 03:03:37;;;;;;;0.10;0.10;;;;;;;9.51;76.19;101423.81;7363367;19;20006;-64
2024/01/25 03:06:02;;;;;;;0.10;0.10;;;;;;;9.38;76.14;101404.78;7364562;19;20759;-64
2024/01/25 03:08:28;;;;;;;0.10;0.10;;;;;;;9.55;76.29;101418.56;7364937;19;20013;-64
2024/01/25 03:10:53;;;;;;;0.17;0.17;;;;;;;9.58;76.24;101410.75;7363016;19;20003;-64
2024/01/25 03:13:19;;;;;;;0.10;0.10;;;;;;;9.50;76.26;101388.19;7359190;19;20548;-64
2024/01/25 03:15:44;;;;;;;0.10;0.10;;;;;;;9.59;76.22;101383.78;7369948;19;20017;-64
2024/01/25 03:18:10;;;;;;;0.10;0.10;;;;;;;9.65;76.23;101382.00;7360825;19;20033;-64
2024/01/25 03:20:36;;;;;;;0.05;0.05;;;;;;;9.69;76.78;101384.56;7360516;19;20011;-64
2024/01/25 03:23:02;;;;;;;0.10;0.10;;;;;;;9.64;76.41;101362.88;7361113;19;20007;-64
2024/01/25 03:25:28;;;;;;;0.10;0.10;;;;;;;9.75;76.48;101368.88;7364565;19;19999;-64
2024/01/25 03:27:53;;;;;;;0.10;0.10;;;;;;;9.62;76.43;101334.19;7361083;19;20021;-64
2024/01/25 03:30:18;;;;;;;0.10;0.10;;;;;;;9.46;76.20;101298.72;7364860;19;20019;-64
2024/01/25 03:32:46;;;;;;;0.00;0.00;;;;;;;9.86;76.32;101347.91;7361657;19;20029;-64
2024/01/25 03:35:11;;;;;;;0.10;0.10;;;;;;;9.75;76.62;101321.06;7365684;19;20007;-64
2024/01/25 03:37:37;;;;;;;0.10;0.10;;;;;;;9.91;76.09;101327.84;7363127;19;20006;-64
2024/01/25 03:40:03;;;;;;;0.10;0.10;;;;;;;9.98;76.66;101331.25;7366231;19;20018;-64
2024/01/25 03:42:28;;;;;;;0.10;0.10;;;;;;;10.01;76.26;101326.88;7359262;19;20009;-64
2024/01/25 03:44:54;;;;;;;0.10;0.10;;;;;;;10.03;76.54;101322.50;7370761;19;20006;-64
2024/01/25 03:47:19;;;;;;;0.10;0.10;;;;;;;10.06;76.54;101325.09;7363749;19;20002;-64
2024/01/25 03:49:45;;;;;;;0.10;0.10;;;;;;;10.10;76.24;101334.63;7365475;19;20006;-64
2024/01/25 03:52:10;;;;;;;0.10;0.10;;;;;;;10.01;76.14;101306.00;7358582;19;20014;-64
2024/01/25 03:54:36;;;;;;;0.10;0.10;;;;;;;10.14;76.19;101318.06;7363069;19;20019;-64
2024/01/25 03:57:01;;;;;;;0.10;0.10;;;;;;;10.10;76.16;101303.31;7357293;19;20010;-64
2024/01/25 03:59:27;;;;;;;0.20;0.20;;;;;;;10.22;76.26;101317.94;7361988;19;20022;-64
2024/01/25 04:01:52;;;;;;;0.10;0.10;;;;;;;10.17;76.23;101298.88;7362290;19;20105;-64
2024/01/25 04:04:17;;;;;;;0.10;0.10;;;;;;;10.21;76.47;101299.72;7360903;19;20048;-64
2024/01/25 04:06:45;;;;;;;0.10;0.10;;;;;;;10.33;76.34;101295.22;7361266;19;20102;-64
2024/01/25 04:09:10;;;;;;;;;;;;;;;10.45;75.65;101299.44;7365791;19;20014;-64
2024/01/25 04:11:37;;;;;;;0.10;0.10;;;;;;;10.39;76.13;101287.34;7351017;19;20033;-64
2024/01/25 04:14:02;;;;;;;0.10;0.10;;;;;;;10.33;75.88;101257.81;7370098;19;20013;-64
2024/01/25 04:16:28;;;;;;;0.10;0.10;;;;;;;10.37;76.20;101259.50;7369486;19;20366;-64
2024/01/25 04:18:53;;;;;;;0.10;0.10;;;;;;;10.46;76.20;101261.16;7348917;19;20502;-64
2024/01/25 04:21:19;;;;;;;0.10;0.10;;;;;;;10.53;76.12;101265.38;7371461;19;20014;-64
2024/01/25 04:23:44;;;;;;;0.10;0.10;;;;;;;10.53;76.45;101245.34;7368789;19;20014;-64
2024/01/25 04:26:09;;;;;;;0.10;0.10;;;;;;;10.34;76.45;101208.22;7369960;19;20017;-64
2024/01/25 04:28:35;;;;;;;0.10;0.10;;;;;;;10.48;76.28;101226.28;7370490;19;20010;-64
2024/01/25 04:31:02;;;;;;;0.10;0.10;;;;;;;10.59;76.35;101250.53;7366367;19;20024;-64
2024/01/25 04:33:28;;;;;;;;;;;;;;;10.65;75.45;101249.56;7366556;19;20769;-64
2024/01/25 04:35:53;;;;;;;0.10;0.10;;;;;;;10.61;75.99;101243.50;7370500;19;19951;-64
2024/01/25 04:38:19;;;;;;;0.10;0.10;;;;;;;10.64;75.79;101240.88;7371678;19;20442;-63
2024/01/25 04:40:44;;;;;;;0.10;0.10;;;;;;;10.63;76.27;101252.19;7365483;19;20473;-63
2024/01/25 04:43:11;;;;;;;0.10;0.10;;;;;;;10.48;76.30;101218.44;7374157;19;20013;-64
2024/01/25 04:45:36;;;;;;;0.10;0.10;;;;;;;10.64;76.08;101245.19;7367817;19;20014;-64
2024/01/25 04:48:02;;;;;;;0.10;0.10;;;;;;;10.68;76.13;101252.13;7369332;19;20014;-63
2024/01/25 04:50:28;;;;;;;0.10;0.10;;;;;;;10.69;76.51;101256.44;7374603;19;20520;-63
2024/01/25 04:52:53;;;;;;;0.10;0.10;;;;;;;10.69;76.67;101245.13;7367450;19;20040;-64
2024/01/25 04:55:20;;;;;;;0.10;0.10;;;;;;;10.58;76.33;101229.63;7371245;19;20007;-64
2024/01/25 04:57:45;;;;;;;0.10;0.10;;;;;;;10.74;76.27;101245.94;7367517;19;20826;-64
2024/01/25 05:00:11;;;;;;;0.08;0.08;;;;;;;10.74;76.70;101243.31;7359974;19;20023;-64
2024/01/25 05:02:36;;;;;;;0.10;0.10;;;;;;;10.71;76.36;101232.94;7361789;19;20006;-64
2024/01/25 05:05:02;;;;;;;0.17;0.17;;;;;;;10.75;76.64;101232.88;7370508;19;21117;-64
2024/01/25 05:07:27;;;;;;;0.10;0.10;;;;;;;10.64;76.81;101196.47;7364276;19;20007;-64
2024/01/25 05:09:53;;;;;;;0.10;0.10;;;;;;;10.58;76.47;101177.41;7370947;19;20018;-64
2024/01/25 05:12:19;;;;;;;0.10;0.10;;;;;;;10.62;76.41;101176.47;7368471;19;20037;-64
2024/01/25 05:14:44;;;;;;;0.10;0.10;;;;;;;10.79;76.33;101197.09;7371099;19;20064;-64
2024/01/25 05:17:09;;;;;;;0.10;0.10;;;;;;;10.65;76.13;101177.28;7370147;19;20361;-64
2024/01/25 05:19:35;;;;;;;0.10;0.10;;;;;;;10.58;76.20;101149.53;7366928;19;20006;-64
2024/01/25 05:22:06;;;;;;;0.10;0.10;;;;;;;10.75;76.21;101174.53;7368725;19;20473;-64
2024/01/25 05:24:31;;;;;;;0.10;0.10;;;;;;;10.63;76.36;101160.75;7366992;19;20525;-63
2024/01/25 05:26:57;;;;;;;0.10;0.10;;;;;;;10.74;76.55;101170.19;7366824;19;20015;-64
2024/01/25 05:29:22;;;;;;;0.10;0.10;;;;;;;10.74;76.51;101167.56;7365141;19;20018;-64
2024/01/25 05:31:49;;;;;;;0.17;0.17;;;;;;;10.69;76.65;101162.41;7366871;19;20015;-63
2024/01/25 05:34:15;;;;;;;0.10;0.10;;;;;;;10.73;76.70;101173.69;7363994;19;20050;-63
2024/01/25 05:36:41;;;;;;;0.10;0.10;;;;;;;10.71;76.87;101176.34;7368893;19;20007;-64
2024/01/25 05:39:07;;;;;;;0.20;0.20;;;;;;;10.69;76.93;101164.16;7374047;19;20010;-64
2024/01/25 05:41:33;;;;;;;0.10;0.10;;;;;;;10.69;76.51;101167.63;7375320;19;20513;-63
2024/01/25 05:43:59;;;;;;;0.08;0.08;;;;;;;10.68;76.94;101165.06;7374911;19;20874;-63
2024/01/25 05:46:25;;;;;;;0.10;0.10;;;;;;;10.57;76.68;101150.41;7372896;19;20066;-63
2024/01/25 05:48:50;;;;;;;0.20;0.20;;;;;;;10.52;77.07;101128.75;7367690;19;20088;-64
2024/01/25 05:51:16;;;;;;;0.10;0.10;;;;;;;10.48;76.99;101116.63;7361765;19;20058;-63
2024/01/25 05:53:41;;;;;;;0.08;0.08;;;;;;;10.47;76.92;101114.91;7363465;19;20021;-63
2024/01/25 05:56:07;;;;;;;0.10;0.10;;;;;;;10.65;77.25;101138.13;7362277;19;20010;-63
2024/01/25 05:58:32;;;;;;;0.10;0.10;;;;;;;10.67;77.36;101137.22;7367401;19;20033;-63
2024/01/25 06:00:57;;;;;;;0.10;0.10;;;;;;;10.64;77.13;101127.66;7367953;19;20006;-63
2024/01/25 06:03:23;;;;;;;0.10;0.10;;;;;;;10.68;77.35;101128.50;7365022;19;20018;-63
2024/01/25 06:05:48;;;;;;;0.10;0.10;;;;;;;10.67;77.45;101111.97;7364007;19;20014;-63
2024/01/25 06:08:14;;;;;;;0.10;0.10;;;;;;;10.58;77.46;101096.44;7368343;19;20011;-64
2024/01/25 06:10:39;;;;;;;0.10;0.10;;;;;;;10.72;77.25;101109.28;7364388;19;20006;-64
2024/01/25 06:13:05;;;;;;;0.10;0.10;;;;;;;10.69;76.98;101106.72;7367374;19;20025;-63
2024/01/25 06:15:31;;;;;;;0.10;0.10;;;;;;;10.60;77.37;101092.94;7373812;19;20014;-64
2024/01/25 06:17:57;;;;;;;0.10;0.10;;;;;;;10.75;77.53;101115.31;7372594;19;20055;-64
2024/01/25 06:20:22;;;;;;;0.10;0.10;;;;;;;10.76;77.43;101108.34;7365632;19;20031;-63
2024/01/25 06:22:48;;;;;;;0.10;0.10;;;;;;;10.76;77.73;101106.59;7363507;19;20010;-63
2024/01/25 06:25:14;;;;;;;0.10;0.10;;;;;;;10.62;77.34;101072.88;7358465;19;20873;-64
2024/01/25 06:27:39;;;;;;;0.10;0.10;;;;;;;10.68;77.29;101095.41;7367596;19;20018;-64
2024/01/25 06:30:05;;;;;;;0.10;0.10;;;;;;;10.83;77.65;101117.78;7371397;19;20029;-64
2024/01/25 06:32:31;;;;;;;0.10;0.10;;;;;;;10.83;77.34;101099.50;7363213;19;20137;-64
2024/01/25 06:34:56;;;;;;;0.10;0.10;;;;;;;10.86;77.44;101082.03;7366237;19;20082;-64
2024/01/25 06:37:22;;;;;;;0.10;0.10;;;;;;;10.91;77.64;101071.50;7366252;19;20018;-64
2024/01/25 06:39:47;;;;;;;0.10;0.10;;;;;;;10.90;77.50;101067.19;7366268;19;20006;-64
2024/01/25 06:42:13;;;;;;;0.10;0.10;;;;;;;11.01;77.40;101065.22;7368432;19;20017;-64
2024/01/25 06:44:38;;;;;;;0.10;0.10;;;;;;;11.09;77.38;101072.91;7366666;19;20005;-64
2024/01/25 06:47:04;;;;;;;0.10;0.10;;;;;;;11.18;77.38;101057.03;7369237;19;20025;-64
2024/01/25 06:49:29;;;;;;;0.10;0.10;;;;;;;11.05;77.61;101024.19;7363205;19;20370;-64
2024/01/25 06:51:55;;;;;;;0.10;0.10;;;;;;;11.34;77.30;101053.22;7364956;19;20522;-64
2024/01/25 06:54:20;;;;;;;0.13;0.13;;;;;;;11.39;77.29;101046.16;7363554;19;20007;-64
2024/01/25 06:56:46;;;;;;;0.10;0.10;;;;;;;11.35;77.24;101038.41;7366371;19;20075;-64
2024/01/25 06:59:11;;;;;;;0.13;0.13;;;;;;;11.50;77.09;101045.94;7360728;19;20009;-64
2024/01/25 07:01:36;;;;;;;0.10;0.10;;;;;;;11.52;77.04;101052.00;7368387;19;20021;-64
2024/01/25 07:04:03;;;;;;;0.20;0.20;;;;;;;11.61;77.33;101046.59;7367664;19;20018;-64
2024/01/25 07:06:29;;;;;;;0.10;0.10;;;;;;;11.61;76.92;101033.50;7360094;19;20010;-64
2024/01/25 07:08:54;;;;;;;0.10;0.10;;;;;;;11.66;77.01;101038.66;7363479;19;21068;-64
2024/01/25 07:11:20;;;;;;;0.10;0.10;;;;;;;11.72;77.01;101042.88;7359281;19;20014;-64
2024/01/25 07:13:45;;;;;;;0.10;0.10;;;;;;;11.74;77.16;101030.59;7369225;19;20031;-64
2024/01/25 07:16:11;;;;;;;0.15;0.15;;;;;;;11.85;77.06;101034.72;7359641;19;20010;-64
2024/01/25 07:18:37;;;;;;;0.10;0.10;;;;;;;11.84;76.99;101029.53;7364015;19;20060;-64
2024/01/25 07:21:02;;;;;;;0.10;0.10;;;;;;;11.92;76.76;101036.34;7349841;19;20006;-64
2024/01/25 07:23:30;;;;;;;0.13;0.13;;;;;;;11.98;77.07;101037.94;7367347;19;20041;-64
2024/01/25 07:25:55;;;;;;;0.10;0.10;;;;;;;12.00;76.67;101028.28;7364333;19;20037;-64
2024/01/25 07:28:21;;;;;;;0.20;0.20;;;;;;;12.02;76.77;101036.97;7363352;19;20510;-64
2024/01/25 07:30:49;;;;;;;0.10;0.10;;;;;;;11.98;76.53;101014.38;7357789;19;20021;-64
2024/01/25 07:33:15;;;;;;;0.10;0.10;;;;;;;12.05;76.88;101025.56;7356429;19;20031;-64
2024/01/25 07:35:45;;;;;;;0.10;0.10;;;;;;;12.12;76.69;101028.00;7358378;19;20021;-64
2024/01/25 07:38:11;;;;;;;0.10;0.10;;;;;;;12.07;76.37;101022.03;7350390;19;20011;-64
2024/01/25 07:40:37;;;;;;;0.15;0.15;;;;;;;12.16;76.46;101019.16;7358364;19;20017;-64
2024/01/25 07:43:02;;;;;;;0.10;0.10;;;;;;;12.08;76.51;101005.41;7360239;19;20760;-64
2024/01/25 07:45:28;;;;;;;0.17;0.17;;;;;;;12.17;76.29;101007.81;7374021;19;20852;-64
2024/01/25 07:47:54;;;;;;;0.10;0.10;;;;;;;12.12;76.10;100988.75;7355611;19;20676;-64
2024/01/25 07:50:19;;;;;;;0.10;0.10;;;;;;;12.26;76.27;101005.84;7357711;19;20070;-64
2024/01/25 07:52:45;;;;;;;0.10;0.10;;;;;;;12.30;76.15;101010.97;7356396;19;20024;-64
2024/01/25 07:55:10;;;;;;;0.10;0.10;;;;;;;12.25;76.32;100985.81;7358761;19;20006;-64
2024/01/25 07:57:36;;;;;;;0.10;0.10;;;;;;;12.22;76.56;100980.69;7353342;19;20037;-64
2024/01/25 08:00:01;;;;;;;0.10;0.10;;;;;;;12.37;76.27;100991.63;7358713;19;20006;-64
2024/01/25 08:02:27;;;;;;;0.10;0.10;;;;;;;12.38;76.33;100997.72;7361710;19;20038;-64
2024/01/25 08:04:53;;;;;;;0.10;0.10;;;;;;;12.40;76.16;100995.91;7365343;19;20030;-63
2024/01/25 08:07:19;;;;;;;0.10;0.10;;;;;;;12.41;76.15;101008.09;7356297;19;20117;-64
2024/01/25 08:09:45;;;;;;;0.20;0.20;;;;;;;12.36;76.07;100991.63;7357687;19;20480;-64
2024/01/25 08:12:11;;;;;;;0.10;0.10;;;;;;;12.44;76.37;100997.56;7364191;19;20015;-64
2024/01/25 08:14:36;;;;;;;0.10;0.10;;;;;;;12.44;76.62;101005.41;7360266;19;20006;-64
2024/01/25 08:17:02;;;;;;;0.10;0.10;;;;;;;12.39;76.32;100989.81;7362398;19;20871;-63
2024/01/25 08:19:27;;;;;;;0.10;0.10;;;;;;;12.48;76.35;100993.97;7351920;19;20042;-63
2024/01/25 08:21:53;;;;;;;0.20;0.20;;;;;;;12.36;76.27;100963.69;7360799;19;20390;-63
2024/01/25 08:24:18;;;;;;;0.10;0.10;;;;;;;12.35;76.29;100950.63;7360255;19;20003;-63
2024/01/25 08:26:44;;;;;;;0.15;0.15;;;;;;;12.51;76.52;100972.03;7361685;19;20010;-64
2024/01/25 08:29:09;;;;;;;0.10;0.10;;;;;;;12.52;76.15;100974.66;7359862;19;20034;-63
2024/01/25 08:31:35;;;;;;;0.10;0.10;;;;;;;12.55;76.11;100984.16;7362849;19;20370;-64
2024/01/25 08:34:00;;;;;;;0.10;0.10;;;;;;;12.55;76.28;100984.16;7354669;19;20010;-64
2024/01/25 08:36:25;;;;;;;0.10;0.10;;;;;;;12.58;76.26;100963.16;7361685;19;20002;-64
2024/01/25 08:38:51;;;;;;;0.10;0.10;;;;;;;12.51;76.49;100951.94;7362243;19;20038;-64
2024/01/25 08:41:16;;;;;;;0.10;0.10;;;;;;;12.62;76.02;100976.13;7358953;19;20010;-63
2024/01/25 08:43:42;;;;;;;0.10;0.10;;;;;;;12.61;76.56;100961.28;7368083;19;20030;-64
2024/01/25 08:46:08;;;;;;;0.10;0.10;;;;;;;12.65;76.60;100967.31;7341667;19;20006;-64
2024/01/25 08:48:34;;;;;;;0.10;0.10;;;;;;;12.66;76.17;100963.78;7368608;19;20016;-64
2024/01/25 08:50:59;;;;;;;0.10;0.10;;;;;;;12.57;76.54;100936.09;7359927;19;20413;-64
2024/01/25 08:53:27;;;;;;;0.10;0.10;;;;;;;12.65;76.34;100952.44;7354390;19;20070;-63
2024/01/25 08:55:55;;;;;;;;;;;;;;;12.80;76.05;100958.16;7364193;19;20029;-64
2024/01/25 08:58:22;;;;;;;0.10;0.10;;;;;;;12.73;76.32;100953.09;7365494;19;19935;-64
2024/01/25 09:00:47;;;;;;;0.10;0.10;;;;;;;12.78;76.07;100957.38;7366647;19;20102;-64
2024/01/25 09:03:14;;;;;;;0.20;0.20;;;;;;;12.79;76.25;100961.69;7372562;19;20449;-64
2024/01/25 09:05:44;;;;;;;0.10;0.10;;;;;;;12.75;76.52;100955.66;7365329;19;20469;-64
2024/01/25 09:08:11;;;;;;;0.10;0.10;;;;;;;12.80;76.16;100958.16;7374007;19;20006;-64
2024/01/25 09:10:37;;;;;;;0.10;0.10;;;;;;;12.80;76.54;100963.41;7359590;19;20013;-64
2024/01/25 09:13:02;;;;;;;0.10;0.10;;;;;;;12.83;76.25;100965.97;7367000;19;20006;-64
2024/01/25 09:15:28;;;;;;;0.10;0.10;;;;;;;12.84;76.17;100949.31;7365082;19;20309;-64
2024/01/25 09:17:53;;;;;;;0.10;0.10;;;;;;;12.87;76.53;100949.22;7362881;19;20018;-64
2024/01/25 09:20:19;;;;;;;0.20;0.20;;;;;;;12.89;76.19;100950.91;7372790;19;20093;-64
2024/01/25 09:22:44;;;;;;;0.10;0.10;;;;;;;12.87;76.20;100939.59;7368252;19;20405;-64
2024/01/25 09:25:09;;;;;;;0.10;0.10;;;;;;;12.86;76.16;100935.25;7363959;19;20806;-64
2024/01/25 09:27:36;;;;;;;0.10;0.10;;;;;;;12.82;76.33;100930.16;7363265;19;20018;-64
2024/01/25 09:30:02;;;;;;;0.10;0.10;;;;;;;12.94;76.26;100919.31;7370004;19;21199;-64
2024/01/25 09:32:27;;;;;;;0.10;0.10;;;;;;;13.00;76.45;100919.16;7364660;19;20002;-64
2024/01/25 09:34:54;;;;;;;0.10;0.10;;;;;;;12.72;76.74;100878.03;7368555;19;20110;-64
2024/01/25 09:37:22;;;;;;;0.10;0.10;;;;;;;13.04;76.17;100918.16;7366566;19;20010;-64
2024/01/25 09:39:47;;;;;;;0.10;0.10;;;;;;;12.94;76.38;100898.34;7366152;19;20018;-64
2024/01/25 09:42:12;;;;;;;0.10;0.10;;;;;;;13.09;76.23;100916.25;7367885;19;20010;-64
2024/01/25 09:44:40;;;;;;;0.10;0.10;;;;;;;13.12;76.45;100910.91;7369381;19;20003;-64
2024/01/25 09:47:07;;;;;;;0.10;0.10;;;;;;;13.03;75.99;100895.47;7369319;19;20031;-64
2024/01/25 09:49:33;;;;;;;0.20;0.20;;;;;;;13.09;76.48;100897.06;7360643;19;20021;-64
2024/01/25 09:52:04;;;;;;;0.10;0.10;;;;;;;13.06;75.92;100882.25;7370696;19;20014;-64
2024/01/25 09:54:39;;;;;;;0.10;0.10;;;;;;;13.20;76.14;100901.06;7362312;19;20089;-64
2024/01/25 09:57:19;;;;;;;0.10;0.10;;;;;;;13.27;76.21;100911.38;7361482;19;20694;-64
2024/01/25 09:59:45;;;;;;;0.20;0.20;;;;;;;13.23;76.40;100901.00;7364058;19;20021;-64
2024/01/25 10:02:11;;;;;;;0.13;0.13;;;;;;;13.24;76.40;100892.22;7365345;19;20035;-64
2024/01/25 10:04:37;;;;;;;0.10;0.10;;;;;;;13.24;76.31;100889.59;7363712;19;20018;-64
2024/01/25 10:07:03;;;;;;;0.10;0.10;;;;;;;13.24;75.96;100907.09;7367282;19;20125;-64
2024/01/25 10:09:31;;;;;;;0.10;0.10;;;;;;;13.21;76.10;100876.56;7366007;19;20021;-64
2024/01/25 10:11:56;;;;;;;0.10;0.10;;;;;;;13.37;76.35;100891.84;7367488;19;20033;-64
2024/01/25 10:14:22;;;;;;;0.10;0.10;;;;;;;13.24;76.14;100876.50;7370555;19;20530;-64
2024/01/25 10:16:47;;;;;;;0.10;0.10;;;;;;;13.30;76.05;100882.44;7369031;19;20010;-64
2024/01/25 10:19:13;;;;;;;0.10;0.10;;;;;;;13.34;76.33;100881.47;7362024;19;20010;-64
2024/01/25 10:21:41;;;;;;;0.10;0.10;;;;;;;13.53;76.05;100908.81;7365863;19;20014;-64
2024/01/25 10:24:06;;;;;;;0.20;0.20;;;;;;;13.57;76.35;100899.09;7360939;19;20010;-64
2024/01/25 10:26:34;;;;;;;0.10;0.10;;;;;;;13.62;75.92;100900.66;7363418;19;20013;-64
2024/01/25 10:29:00;;;;;;;0.20;0.20;;;;;;;13.63;75.88;100904.13;7359788;19;20073;-64
2024/01/25 10:31:27;;;;;;;0.10;0.10;;;;;;;13.55;76.27;100896.50;7362553;19;21300;-64
2024/01/25 10:33:53;;;;;;;0.20;0.20;;;;;;;13.53;76.24;100886.97;7360801;19;20774;-64
2024/01/25 10:36:21;;;;;;;0.10;0.10;;;;;;;13.71;75.89;100907.38;7364306;19;20010;-64
2024/01/25 10:38:47;;;;;;;;;;;;;;;13.82;75.91;100904.41;7361002;19;20406;-64
2024/01/25 10:41:13;;;;;;;0.10;0.10;;;;;;;13.79;75.70;100905.38;7362181;19;19930;-64
2024/01/25 10:43:39;;;;;;;0.20;0.20;;;;;;;13.83;75.91;100892.97;7364269;19;20006;-64
2024/01/25 10:46:05;;;;;;;0.10;0.10;;;;;;;13.88;76.08;100904.19;7359276;19;20010;-64
2024/01/25 10:48:31;;;;;;;0.10;0.10;;;;;;;13.76;75.95;100873.97;7361887;19;20002;-64
2024/01/25 10:50:59;;;;;;;0.10;0.10;;;;;;;13.88;76.04;100884.03;7350366;19;21065;-64
2024/01/25 10:53:26;;;;;;;0.10;0.10;;;;;;;13.91;75.73;100898.84;7357382;19;20002;-64
2024/01/25 10:55:52;;;;;;;0.10;0.10;;;;;;;13.83;76.16;100879.84;7360670;19;21590;-64
2024/01/25 10:58:18;;;;;;;0.10;0.10;;;;;;;13.91;76.09;100877.84;7366229;19;20366;-64
2024/01/25 11:00:55;;;;;;;0.10;0.10;;;;;;;14.03;75.61;100888.78;7357482;19;20010;-64
2024/01/25 11:03:25;;;;;;;0.20;0.20;;;;;;;13.95;75.68;100871.59;7362245;19;20019;-64
2024/01/25 11:05:52;;;;;;;0.20;0.20;;;;;;;14.03;75.78;100885.28;7361064;19;20022;-64
2024/01/25 11:08:19;;;;;;;0.10;0.10;;;;;;;14.06;76.26;100877.31;7360377;19;20022;-64
2024/01/25 11:10:51;;;;;;;0.10;0.10;;;;;;;14.12;75.98;100877.13;7362127;19;20014;-64
2024/01/25 11:13:22;;;;;;;0.10;0.10;;;;;;;14.00;75.67;100873.16;7361485;19;20010;-64
2024/01/25 11:15:48;;;;;;;0.10;0.10;;;;;;;14.05;75.90;100865.13;7361629;19;20014;-64
2024/01/25 11:18:14;;;;;;;0.10;0.10;;;;;;;14.14;75.88;100870.06;7358894;19;20048;-64
2024/01/25 11:20:40;;;;;;;0.20;0.20;;;;;;;14.16;75.88;100877.88;7360424;19;20014;-64
2024/01/25 11:23:09;;;;;;;0.10;0.10;;;;;;;14.18;75.90;100876.88;7361255;19;20372;-64